Time;durP1;ratioP1;P1;durP2;ratioP2;P2;SDS_P1;SDS_P2;PMS_P1;PMS_P2;Temp;Humidity;BMP_temperature;BMP_pressure;BME280_temperature;BME280_humidity;BME280_pressure;Samples;Min_cycle;Max_cycle;Signal;HPM_P1;HPM_P2
2023/08/31 00:01:41;;;;;;;4.18;1.00;;;;;;;;;;5055527;28;20447;-67
2023/08/31 00:04:14;;;;;;;7.70;1.48;;;;;;;;;;5056414;28;20419;-66
2023/08/31 00:06:40;;;;;;;4.88;0.70;;;;;;;;;;5055023;28;20036;-67
2023/08/31 00:09:09;;;;;;;3.28;0.90;;;;;;;;;;5053063;28;20097;-67
2023/08/31 00:11:35;;;;;;;5.43;1.40;;;;;;;;;;5054099;28;20056;-67
2023/08/31 00:14:01;;;;;;;5.28;1.00;;;;;;;;;;5054939;28;20032;-67
2023/08/31 00:16:27;;;;;;;3.15;1.02;;;;;;;;;;5054314;28;20134;-67
2023/08/31 00:18:54;;;;;;;4.78;1.48;;;;;;;;;;5054642;28;20036;-67
2023/08/31 00:21:21;;;;;;;5.78;1.30;;;;;;;;;;5054133;28;20055;-67
2023/08/31 00:23:48;;;;;;;5.00;1.90;;;;;;;;;;5054913;28;20028;-67
2023/08/31 00:26:14;;;;;;;7.57;1.30;;;;;;;;;;5054912;28;20063;-67
2023/08/31 00:28:42;;;;;;;5.05;1.20;;;;;;;;;;5054731;28;20028;-66
2023/08/31 00:31:08;;;;;;;5.25;1.55;;;;;;;;;;5055195;28;20040;-66
2023/08/31 00:33:34;;;;;;;4.90;1.48;;;;;;;;;;5054744;28;20040;-67
2023/08/31 00:36:04;;;;;;;4.65;1.40;;;;;;;;;;5055180;28;20032;-67
2023/08/31 00:38:30;;;;;;;5.10;1.50;;;;;;;;;;5053498;28;20146;-67
2023/08/31 00:40:56;;;;;;;7.38;1.95;;;;;;;;;;5052944;28;20024;-67
2023/08/31 00:43:23;;;;;;;3.85;1.65;;;;;;;;;;5052640;28;20059;-67
2023/08/31 00:45:51;;;;;;;4.70;2.20;;;;;;;;;;5052574;28;20031;-67
2023/08/31 00:48:18;;;;;;;4.80;1.80;;;;;;;;;;5052582;28;20040;-66
2023/08/31 00:50:44;;;;;;;5.90;1.98;;;;;;;;;;5051356;28;20078;-67
2023/08/31 00:53:10;;;;;;;3.65;1.63;;;;;;;;;;5053438;28;20044;-67
2023/08/31 00:55:38;;;;;;;4.28;1.77;;;;;;;;;;5052864;28;20036;-66
2023/08/31 00:58:05;;;;;;;5.00;2.13;;;;;;;;;;5052827;28;22128;-66
2023/08/31 01:00:51;;;;;;;5.40;1.90;;;;;;;;;;5054539;28;20032;-66
2023/08/31 01:03:26;;;;;;;6.72;1.95;;;;;;;;;;5022817;28;20040;-66
2023/08/31 01:05:59;;;;;;;4.25;1.90;;;;;;;;;;5053239;28;20048;-66
2023/08/31 01:08:44;;;;;;;4.82;1.70;;;;;;;;;;5054077;28;20525;-67
2023/08/31 01:11:19;;;;;;;9.75;2.30;;;;;;;;;;5051339;28;20048;-67
2023/08/31 01:14:03;;;;;;;4.60;2.10;;;;;;;;;;5051405;28;20588;-66
2023/08/31 01:16:29;;;;;;;3.67;1.63;;;;;;;;;;5054857;28;20098;-67
2023/08/31 01:18:56;;;;;;;4.25;2.17;;;;;;;;;;5053804;28;20025;-67
2023/08/31 01:21:28;;;;;;;6.47;2.28;;;;;;;;;;5053410;28;20032;-67
2023/08/31 01:23:58;;;;;;;10.70;2.10;;;;;;;;;;5052991;28;20032;-67
2023/08/31 01:26:25;;;;;;;6.45;1.80;;;;;;;;;;5054495;28;20051;-66
2023/08/31 01:28:51;;;;;;;4.32;1.80;;;;;;;;;;5052982;28;20025;-67
2023/08/31 01:31:18;;;;;;;3.97;1.92;;;;;;;;;;5053399;28;20038;-66
2023/08/31 01:33:44;;;;;;;6.82;1.85;;;;;;;;;;5053264;28;20036;-67
2023/08/31 01:36:18;;;;;;;7.85;1.70;;;;;;;;;;5052911;28;20056;-66
2023/08/31 01:38:45;;;;;;;7.10;1.85;;;;;;;;;;5053201;28;20143;-67
2023/08/31 01:41:14;;;;;;;6.35;1.40;;;;;;;;;;5053256;28;20024;-67
2023/08/31 01:43:41;;;;;;;4.63;1.65;;;;;;;;;;5051760;28;20032;-66
2023/08/31 01:46:08;;;;;;;4.10;1.50;;;;;;;;;;5052498;28;20071;-67
2023/08/31 01:48:42;;;;;;;5.45;1.52;;;;;;;;;;5051594;28;20028;-66
2023/08/31 01:51:09;;;;;;;6.88;2.08;;;;;;;;;;5052703;28;20036;-66
2023/08/31 01:53:36;;;;;;;8.32;1.73;;;;;;;;;;5052505;28;20035;-66
2023/08/31 01:56:02;;;;;;;4.65;1.52;;;;;;;;;;5053615;28;20054;-66
2023/08/31 01:58:28;;;;;;;4.28;1.38;;;;;;;;;;5050570;28;20129;-66
2023/08/31 02:00:54;;;;;;;7.50;1.80;;;;;;;;;;5052073;28;20111;-66
2023/08/31 02:03:20;;;;;;;5.35;1.38;;;;;;;;;;5051965;28;20032;-66
2023/08/31 02:05:46;;;;;;;7.35;1.58;;;;;;;;;;5052721;28;20036;-66
2023/08/31 02:08:12;;;;;;;4.55;1.40;;;;;;;;;;5051935;28;20082;-66
2023/08/31 02:10:38;;;;;;;15.93;2.42;;;;;;;;;;5052446;28;21397;-66
2023/08/31 02:13:04;;;;;;;3.58;1.35;;;;;;;;;;5052172;28;20040;-66
2023/08/31 02:15:30;;;;;;;6.00;1.40;;;;;;;;;;5052616;28;21098;-66
2023/08/31 02:17:57;;;;;;;4.53;1.40;;;;;;;;;;5069180;28;21035;-66
2023/08/31 02:20:23;;;;;;;6.13;1.73;;;;;;;;;;5052598;28;20127;-66
2023/08/31 02:22:50;;;;;;;3.63;1.63;;;;;;;;;;5052668;28;20032;-66
2023/08/31 02:25:16;;;;;;;3.50;1.38;;;;;;;;;;5056659;28;20901;-66
2023/08/31 02:27:42;;;;;;;3.92;1.10;;;;;;;;;;5057661;28;20160;-66
2023/08/31 02:30:09;;;;;;;4.60;1.20;;;;;;;;;;5055769;28;20773;-66
2023/08/31 02:32:35;;;;;;;3.47;1.20;;;;;;;;;;5056308;28;20034;-66
2023/08/31 02:35:01;;;;;;;1.65;1.08;;;;;;;;;;5055540;28;20036;-66
2023/08/31 02:37:27;;;;;;;4.32;1.08;;;;;;;;;;5054056;28;21098;-66
2023/08/31 02:39:54;;;;;;;3.78;1.05;;;;;;;;;;5055348;28;20494;-66
2023/08/31 02:42:20;;;;;;;3.58;1.13;;;;;;;;;;5055896;28;20024;-66
2023/08/31 02:44:46;;;;;;;4.00;1.17;;;;;;;;;;5054888;28;20071;-67
2023/08/31 02:47:12;;;;;;;2.60;0.90;;;;;;;;;;5054691;28;20044;-66
2023/08/31 02:49:38;;;;;;;4.22;1.13;;;;;;;;;;5053627;28;20024;-66
2023/08/31 02:52:04;;;;;;;4.35;1.30;;;;;;;;;;5055402;28;20032;-66
2023/08/31 02:54:30;;;;;;;2.63;0.90;;;;;;;;;;5054567;28;20047;-66
2023/08/31 02:56:56;;;;;;;4.45;1.40;;;;;;;;;;5054103;28;20032;-66
2023/08/31 02:59:23;;;;;;;5.82;1.10;;;;;;;;;;5055316;28;20036;-66
2023/08/31 03:01:49;;;;;;;3.08;0.90;;;;;;;;;;5054450;28;20037;-66
2023/08/31 03:04:15;;;;;;;1.70;0.90;;;;;;;;;;5054791;28;20139;-66
2023/08/31 03:06:41;;;;;;;3.50;1.10;;;;;;;;;;5056836;28;20466;-66
2023/08/31 03:09:07;;;;;;;3.92;0.82;;;;;;;;;;5054909;28;20530;-66
2023/08/31 03:11:33;;;;;;;2.90;1.20;;;;;;;;;;5054799;28;20051;-66
2023/08/31 03:14:00;;;;;;;6.15;1.17;;;;;;;;;;5055142;28;20048;-66
2023/08/31 03:16:26;;;;;;;2.45;0.77;;;;;;;;;;5056102;28;20049;-67
2023/08/31 03:18:52;;;;;;;3.47;0.98;;;;;;;;;;5051085;28;20077;-66
2023/08/31 03:21:18;;;;;;;4.53;0.82;;;;;;;;;;5056321;28;20031;-66
2023/08/31 03:23:44;;;;;;;3.22;0.95;;;;;;;;;;5054638;28;20033;-66
2023/08/31 03:26:10;;;;;;;2.58;1.02;;;;;;;;;;5052633;28;20027;-66
2023/08/31 03:28:38;;;;;;;3.17;0.80;;;;;;;;;;5055433;28;20032;-66
2023/08/31 03:31:04;;;;;;;3.22;1.02;;;;;;;;;;5054796;28;20032;-66
2023/08/31 03:33:30;;;;;;;4.75;1.50;;;;;;;;;;5056604;28;20035;-66
2023/08/31 03:36:04;;;;;;;1.92;0.88;;;;;;;;;;5053555;28;20111;-66
2023/08/31 03:38:31;;;;;;;3.50;0.90;;;;;;;;;;5054455;28;20047;-66
2023/08/31 03:40:57;;;;;;;5.80;0.88;;;;;;;;;;5054169;28;20150;-66
2023/08/31 03:43:23;;;;;;;6.95;1.30;;;;;;;;;;5055409;28;20172;-66
2023/08/31 03:45:49;;;;;;;3.42;0.80;;;;;;;;;;5054323;28;20081;-66
2023/08/31 03:48:15;;;;;;;4.20;0.60;;;;;;;;;;5055153;28;20028;-66
2023/08/31 03:50:42;;;;;;;2.97;1.02;;;;;;;;;;5055687;28;20036;-66
2023/08/31 03:53:08;;;;;;;5.80;1.02;;;;;;;;;;5054252;28;20067;-66
2023/08/31 03:55:37;;;;;;;3.67;0.57;;;;;;;;;;5054684;28;20113;-66
2023/08/31 03:58:03;;;;;;;2.17;0.88;;;;;;;;;;5054546;28;20024;-66
2023/08/31 04:00:29;;;;;;;7.40;1.55;;;;;;;;;;5053584;28;20054;-66
2023/08/31 04:02:55;;;;;;;4.28;0.73;;;;;;;;;;5054749;28;20146;-66
2023/08/31 04:05:21;;;;;;;2.80;0.90;;;;;;;;;;5053970;28;21975;-66
2023/08/31 04:07:47;;;;;;;3.80;0.80;;;;;;;;;;5054604;28;21087;-66
2023/08/31 04:10:14;;;;;;;4.68;0.80;;;;;;;;;;5054783;28;20059;-66
2023/08/31 04:12:40;;;;;;;4.25;1.10;;;;;;;;;;5054360;28;20827;-67
2023/08/31 04:15:06;;;;;;;3.08;0.80;;;;;;;;;;5051922;28;20048;-67
2023/08/31 04:17:32;;;;;;;4.03;0.80;;;;;;;;;;5054678;28;20086;-66
2023/08/31 04:19:58;;;;;;;3.17;0.90;;;;;;;;;;5055089;28;20028;-66
2023/08/31 04:22:26;;;;;;;2.83;0.77;;;;;;;;;;5053607;28;20028;-66
2023/08/31 04:24:53;;;;;;;1.95;0.70;;;;;;;;;;5055391;28;20033;-66
2023/08/31 04:27:19;;;;;;;5.13;1.63;;;;;;;;;;5052956;28;20150;-66
2023/08/31 04:29:45;;;;;;;6.57;1.10;;;;;;;;;;5054799;28;20139;-66
2023/08/31 04:32:11;;;;;;;2.25;0.98;;;;;;;;;;5053291;28;20028;-66
2023/08/31 04:34:37;;;;;;;6.63;1.30;;;;;;;;;;5054832;28;20032;-66
2023/08/31 04:37:04;;;;;;;4.95;1.13;;;;;;;;;;5053506;28;20028;-66
2023/08/31 04:39:30;;;;;;;3.47;1.20;;;;;;;;;;5054579;28;20098;-66
2023/08/31 04:41:56;;;;;;;3.28;0.88;;;;;;;;;;5053684;28;20060;-66
2023/08/31 04:44:22;;;;;;;2.47;0.80;;;;;;;;;;5050006;28;20028;-66
2023/08/31 04:46:48;;;;;;;5.20;1.00;;;;;;;;;;5052353;28;20172;-66
2023/08/31 04:49:14;;;;;;;4.38;1.23;;;;;;;;;;5052776;28;21067;-66
2023/08/31 04:51:41;;;;;;;2.25;0.85;;;;;;;;;;5049760;28;20121;-66
2023/08/31 04:54:10;;;;;;;1.42;0.60;;;;;;;;;;5051433;28;20126;-66
2023/08/31 04:56:37;;;;;;;2.28;0.77;;;;;;;;;;5051063;28;20084;-66
2023/08/31 04:59:03;;;;;;;4.97;1.30;;;;;;;;;;5050812;28;20025;-66
2023/08/31 05:01:29;;;;;;;4.10;0.90;;;;;;;;;;5052383;28;20114;-66
2023/08/31 05:03:55;;;;;;;2.97;1.00;;;;;;;;;;5051754;28;20031;-66
2023/08/31 05:06:21;;;;;;;4.65;1.10;;;;;;;;;;5052581;28;20040;-66
2023/08/31 05:08:48;;;;;;;4.63;0.90;;;;;;;;;;5052284;28;20051;-65
2023/08/31 05:11:15;;;;;;;3.50;1.20;;;;;;;;;;5051452;28;20043;-66
2023/08/31 05:13:44;;;;;;;1.80;0.70;;;;;;;;;;5052608;28;21219;-66
2023/08/31 05:16:10;;;;;;;3.78;0.90;;;;;;;;;;5053449;28;20082;-66
2023/08/31 05:18:36;;;;;;;3.47;0.88;;;;;;;;;;5053503;28;20032;-66
2023/08/31 05:21:03;;;;;;;5.05;1.15;;;;;;;;;;5052554;28;20028;-66
2023/08/31 05:23:29;;;;;;;15.45;2.58;;;;;;;;;;5052647;28;20035;-66
2023/08/31 05:25:58;;;;;;;3.67;1.17;;;;;;;;;;5052865;28;20779;-66
2023/08/31 05:28:24;;;;;;;3.60;1.23;;;;;;;;;;5053503;28;20467;-66
2023/08/31 05:30:54;;;;;;;5.20;1.42;;;;;;;;;;5052811;28;20032;-66
2023/08/31 05:33:22;;;;;;;5.75;1.02;;;;;;;;;;5054973;28;20167;-66
2023/08/31 05:35:48;;;;;;;4.97;0.95;;;;;;;;;;5050437;28;20624;-66
2023/08/31 05:38:14;;;;;;;5.35;1.25;;;;;;;;;;5051188;28;20884;-66
2023/08/31 05:40:45;;;;;;;5.50;1.10;;;;;;;;;;5052119;28;20040;-66
2023/08/31 05:43:12;;;;;;;5.05;0.88;;;;;;;;;;5052937;28;20082;-66
2023/08/31 05:45:38;;;;;;;5.22;1.10;;;;;;;;;;5053218;28;20071;-66
2023/08/31 05:48:04;;;;;;;9.05;1.20;;;;;;;;;;5052716;28;20131;-66
2023/08/31 05:50:30;;;;;;;4.35;1.02;;;;;;;;;;5053072;28;20135;-67
2023/08/31 05:52:57;;;;;;;5.47;1.13;;;;;;;;;;5052980;28;20036;-66
2023/08/31 05:55:23;;;;;;;5.28;1.38;;;;;;;;;;5053240;28;20082;-66
2023/08/31 05:57:49;;;;;;;5.45;0.90;;;;;;;;;;5053399;28;20036;-66
2023/08/31 06:00:16;;;;;;;4.68;1.10;;;;;;;;;;5056399;28;20063;-66
2023/08/31 06:02:44;;;;;;;4.60;1.10;;;;;;;;;;5057533;28;20059;-66
2023/08/31 06:05:12;;;;;;;2.50;1.00;;;;;;;;;;5055073;28;20037;-66
2023/08/31 06:07:38;;;;;;;3.58;1.13;;;;;;;;;;5054422;28;20148;-66
2023/08/31 06:10:04;;;;;;;4.18;1.17;;;;;;;;;;5055798;28;20079;-66
2023/08/31 06:12:31;;;;;;;5.53;1.10;;;;;;;;;;5055409;28;20044;-66
2023/08/31 06:15:00;;;;;;;4.15;1.05;;;;;;;;;;5056977;28;20040;-66
2023/08/31 06:17:26;;;;;;;2.83;1.10;;;;;;;;;;5055729;28;20041;-66
2023/08/31 06:19:52;;;;;;;6.30;1.35;;;;;;;;;;5055415;28;20129;-66
2023/08/31 06:22:18;;;;;;;3.25;1.00;;;;;;;;;;5055174;28;20368;-66
2023/08/31 06:24:45;;;;;;;4.25;0.85;;;;;;;;;;5056829;28;20459;-66
2023/08/31 06:27:12;;;;;;;6.45;1.60;;;;;;;;;;5054970;28;20059;-66
2023/08/31 06:29:38;;;;;;;6.22;1.10;;;;;;;;;;5056251;28;20038;-66
2023/08/31 06:32:05;;;;;;;8.15;1.25;;;;;;;;;;5056324;28;20043;-66
2023/08/31 06:34:31;;;;;;;8.95;1.20;;;;;;;;;;5053477;28;20429;-66
2023/08/31 06:36:58;;;;;;;5.13;1.25;;;;;;;;;;5054437;28;20561;-66
2023/08/31 06:39:24;;;;;;;8.07;1.20;;;;;;;;;;5055788;28;20043;-66
2023/08/31 06:41:50;;;;;;;5.72;1.20;;;;;;;;;;5054513;28;20102;-66
2023/08/31 06:44:16;;;;;;;4.30;1.10;;;;;;;;;;5056219;28;20041;-62
2023/08/31 06:46:43;;;;;;;3.25;1.08;;;;;;;;;;5056065;28;20036;-66
2023/08/31 06:49:10;;;;;;;3.13;0.95;;;;;;;;;;5055496;28;20109;-66
2023/08/31 06:51:37;;;;;;;4.47;1.02;;;;;;;;;;5055401;28;20476;-66
2023/08/31 06:54:06;;;;;;;3.03;0.98;;;;;;;;;;5054798;28;20052;-66
2023/08/31 06:56:36;;;;;;;4.45;1.10;;;;;;;;;;5050467;28;20426;-66
2023/08/31 06:59:03;;;;;;;5.75;1.55;;;;;;;;;;5050472;28;20028;-66
2023/08/31 07:01:29;;;;;;;5.95;1.20;;;;;;;;;;5054231;28;20533;-66
2023/08/31 07:03:55;;;;;;;7.43;1.10;;;;;;;;;;5053099;28;20028;-66
2023/08/31 07:06:22;;;;;;;5.43;0.80;;;;;;;;;;5053003;28;20036;-66
2023/08/31 07:08:49;;;;;;;8.15;1.33;;;;;;;;;;5047665;28;21299;-66
2023/08/31 07:11:15;;;;;;;6.18;1.23;;;;;;;;;;5042545;28;20040;-66
2023/08/31 07:13:41;;;;;;;7.43;1.10;;;;;;;;;;5043895;28;20032;-66
2023/08/31 07:16:07;;;;;;;6.38;1.10;;;;;;;;;;5044462;28;20036;-66
2023/08/31 07:18:33;;;;;;;3.17;0.82;;;;;;;;;;5045719;28;20062;-67
2023/08/31 07:20:59;;;;;;;2.10;0.73;;;;;;;;;;5046194;28;20024;-66
2023/08/31 07:23:26;;;;;;;7.40;0.93;;;;;;;;;;5046368;28;20028;-66
2023/08/31 07:25:52;;;;;;;2.63;1.00;;;;;;;;;;5045247;28;20036;-66
2023/08/31 07:28:18;;;;;;;4.20;0.82;;;;;;;;;;5045120;28;20055;-67
2023/08/31 07:30:44;;;;;;;3.40;0.90;;;;;;;;;;5043241;28;20538;-67
2023/08/31 07:33:10;;;;;;;4.70;0.80;;;;;;;;;;5046171;28;20032;-67
2023/08/31 07:35:38;;;;;;;2.40;0.65;;;;;;;;;;5045005;28;20036;-67
2023/08/31 07:38:04;;;;;;;5.20;0.80;;;;;;;;;;5045746;28;20040;-67
2023/08/31 07:40:34;;;;;;;5.03;1.05;;;;;;;;;;5044841;28;20069;-66
2023/08/31 07:43:00;;;;;;;5.90;1.20;;;;;;;;;;5050111;28;20024;-67
2023/08/31 07:45:26;;;;;;;3.45;0.80;;;;;;;;;;5044922;28;20036;-67
2023/08/31 07:47:55;;;;;;;5.57;0.95;;;;;;;;;;5046627;28;20028;-67
2023/08/31 07:50:21;;;;;;;4.95;0.80;;;;;;;;;;5045859;28;20036;-67
2023/08/31 07:52:47;;;;;;;7.03;1.40;;;;;;;;;;5045608;28;20170;-67
2023/08/31 07:55:13;;;;;;;5.68;1.00;;;;;;;;;;5045805;28;20024;-67
2023/08/31 07:57:40;;;;;;;2.55;0.70;;;;;;;;;;5045304;28;20032;-67
2023/08/31 08:00:06;;;;;;;5.65;0.70;;;;;;;;;;5044259;28;20821;-66
2023/08/31 08:02:32;;;;;;;4.70;1.10;;;;;;;;;;5042174;28;20036;-66
2023/08/31 08:04:58;;;;;;;4.60;0.90;;;;;;;;;;5040761;28;20032;-67
2023/08/31 08:07:24;;;;;;;3.30;0.90;;;;;;;;;;5046259;28;20059;-66
2023/08/31 08:09:50;;;;;;;5.32;0.60;;;;;;;;;;5046774;28;20032;-67
2023/08/31 08:12:16;;;;;;;2.45;0.52;;;;;;;;;;5045530;28;20419;-67
2023/08/31 08:14:42;;;;;;;3.00;0.70;;;;;;;;;;5047825;28;21749;-66
2023/08/31 08:17:08;;;;;;;5.95;0.90;;;;;;;;;;5045004;28;20084;-67
2023/08/31 08:19:34;;;;;;;7.00;0.80;;;;;;;;;;5046631;28;20039;-66
2023/08/31 08:22:00;;;;;;;3.25;0.85;;;;;;;;;;5047304;28;20028;-66
2023/08/31 08:24:27;;;;;;;2.47;0.70;;;;;;;;;;5046309;28;20070;-66
2023/08/31 08:26:53;;;;;;;5.63;1.65;;;;;;;;;;5046743;28;20540;-67
2023/08/31 08:29:22;;;;;;;3.65;0.90;;;;;;;;;;5046742;28;20048;-67
2023/08/31 08:31:48;;;;;;;3.55;0.63;;;;;;;;;;5044422;28;20063;-67
2023/08/31 08:34:14;;;;;;;2.85;0.85;;;;;;;;;;5045341;28;20477;-67
2023/08/31 08:36:40;;;;;;;3.45;0.60;;;;;;;;;;5045167;28;20032;-67
2023/08/31 08:39:06;;;;;;;2.15;0.60;;;;;;;;;;5045285;28;20028;-67
2023/08/31 08:41:33;;;;;;;4.60;0.90;;;;;;;;;;5044944;28;20036;-67
2023/08/31 08:44:05;;;;;;;4.68;0.88;;;;;;;;;;5046458;28;20069;-67
2023/08/31 08:46:32;;;;;;;5.25;0.82;;;;;;;;;;5045537;28;20042;-67
2023/08/31 08:49:02;;;;;;;1.88;0.50;;;;;;;;;;5045564;28;20779;-67
2023/08/31 08:51:28;;;;;;;3.58;0.60;;;;;;;;;;5045324;28;20027;-67
2023/08/31 08:53:55;;;;;;;3.58;0.50;;;;;;;;;;5043318;28;20152;-67
2023/08/31 08:56:21;;;;;;;4.63;0.85;;;;;;;;;;5044087;28;20044;-67
2023/08/31 08:58:47;;;;;;;4.80;0.90;;;;;;;;;;5043325;28;20177;-67
2023/08/31 09:01:13;;;;;;;6.95;1.05;;;;;;;;;;5044082;28;20024;-66
2023/08/31 09:03:49;;;;;;;3.67;0.82;;;;;;;;;;5042388;28;20070;-66
2023/08/31 09:06:15;;;;;;;3.70;0.90;;;;;;;;;;5043731;28;20046;-67
2023/08/31 09:08:42;;;;;;;2.97;0.65;;;;;;;;;;5043779;28;20093;-67
2023/08/31 09:11:08;;;;;;;1.65;0.70;;;;;;;;;;5045125;28;20051;-67
2023/08/31 09:13:34;;;;;;;3.13;0.80;;;;;;;;;;5045294;28;20032;-67
2023/08/31 09:16:00;;;;;;;2.95;0.70;;;;;;;;;;5046193;28;20471;-66
2023/08/31 09:18:26;;;;;;;2.20;0.60;;;;;;;;;;5044737;28;20032;-66
2023/08/31 09:20:52;;;;;;;3.10;0.68;;;;;;;;;;5045666;28;20085;-67
2023/08/31 09:23:19;;;;;;;1.63;0.68;;;;;;;;;;5042893;28;20024;-67
2023/08/31 09:25:55;;;;;;;6.50;1.08;;;;;;;;;;5044414;28;20067;-67
2023/08/31 09:28:29;;;;;;;4.70;1.67;;;;;;;;;;5043589;28;20032;-67
2023/08/31 09:31:04;;;;;;;4.05;0.70;;;;;;;;;;5045182;28;20032;-67
2023/08/31 09:33:31;;;;;;;2.60;0.80;;;;;;;;;;5044649;28;20738;-67
2023/08/31 09:35:59;;;;;;;2.03;0.73;;;;;;;;;;5049596;28;20086;-67
2023/08/31 09:38:26;;;;;;;3.10;0.68;;;;;;;;;;5048788;28;20111;-67
2023/08/31 09:40:52;;;;;;;2.70;0.90;;;;;;;;;;5048116;28;20032;-67
2023/08/31 09:43:21;;;;;;;3.90;1.10;;;;;;;;;;5048931;28;20031;-67
2023/08/31 09:45:48;;;;;;;3.35;1.05;;;;;;;;;;5049497;28;20052;-66
2023/08/31 09:48:16;;;;;;;3.17;0.82;;;;;;;;;;5049410;28;20036;-67
2023/08/31 09:50:43;;;;;;;3.47;1.05;;;;;;;;;;5049824;28;20028;-67
2023/08/31 09:53:10;;;;;;;4.03;1.02;;;;;;;;;;5048422;28;20034;-67
2023/08/31 09:55:36;;;;;;;4.50;1.00;;;;;;;;;;5048745;28;20157;-67
2023/08/31 09:58:03;;;;;;;4.20;0.88;;;;;;;;;;5049376;28;20495;-67
2023/08/31 10:00:32;;;;;;;3.13;0.70;;;;;;;;;;5047971;28;20109;-67
2023/08/31 10:03:02;;;;;;;3.85;1.08;;;;;;;;;;5048242;28;20029;-67
2023/08/31 10:05:29;;;;;;;5.05;1.02;;;;;;;;;;5048442;28;20042;-67
2023/08/31 10:07:55;;;;;;;4.45;0.80;;;;;;;;;;5047005;28;20031;-67
2023/08/31 10:10:24;;;;;;;2.90;0.75;;;;;;;;;;5048548;28;20052;-67
2023/08/31 10:12:54;;;;;;;5.95;1.08;;;;;;;;;;5049018;28;20140;-67
2023/08/31 10:15:20;;;;;;;4.03;1.10;;;;;;;;;;5046837;28;20043;-67
2023/08/31 10:17:47;;;;;;;3.78;0.85;;;;;;;;;;5048343;28;20020;-62
2023/08/31 10:20:15;;;;;;;1.83;0.50;;;;;;;;;;5050499;28;20440;-62
2023/08/31 10:22:41;;;;;;;3.10;0.82;;;;;;;;;;5049004;28;20064;-62
2023/08/31 10:25:08;;;;;;;3.28;1.00;;;;;;;;;;5046015;28;20028;-62
2023/08/31 10:27:38;;;;;;;3.63;1.00;;;;;;;;;;5048741;28;20040;-62
2023/08/31 10:30:15;;;;;;;2.75;0.95;;;;;;;;;;5047230;28;20043;-62
2023/08/31 10:32:41;;;;;;;5.43;1.05;;;;;;;;;;5047879;28;20031;-62
2023/08/31 10:35:10;;;;;;;3.58;0.85;;;;;;;;;;5048663;28;20147;-62
2023/08/31 10:37:36;;;;;;;2.70;1.00;;;;;;;;;;5048227;28;20463;-62
2023/08/31 10:40:12;;;;;;;4.03;1.70;;;;;;;;;;5047630;28;20432;-62
2023/08/31 10:42:44;;;;;;;3.88;1.00;;;;;;;;;;5046884;28;20083;-62
2023/08/31 10:45:11;;;;;;;3.53;1.27;;;;;;;;;;5047698;28;20157;-62
2023/08/31 10:47:38;;;;;;;4.43;0.80;;;;;;;;;;5048119;28;20032;-62
2023/08/31 10:50:18;;;;;;;5.10;1.10;;;;;;;;;;5048108;28;20032;-62
2023/08/31 10:52:49;;;;;;;4.32;1.05;;;;;;;;;;5048075;28;21802;-62
2023/08/31 10:55:15;;;;;;;5.20;1.10;;;;;;;;;;5046745;28;20028;-62
2023/08/31 10:57:41;;;;;;;3.25;0.90;;;;;;;;;;5048815;28;20179;-62
2023/08/31 11:00:11;;;;;;;3.05;0.93;;;;;;;;;;5046298;28;20505;-62
2023/08/31 11:02:43;;;;;;;4.47;0.85;;;;;;;;;;5042990;28;20043;-63
2023/08/31 11:05:19;;;;;;;8.80;0.80;;;;;;;;;;5045533;28;20100;-62
2023/08/31 11:07:47;;;;;;;5.40;0.88;;;;;;;;;;5045561;28;20493;-62
2023/08/31 11:10:14;;;;;;;4.30;1.50;;;;;;;;;;5045238;28;21913;-63
2023/08/31 11:12:44;;;;;;;5.13;0.90;;;;;;;;;;5044953;28;20051;-62
2023/08/31 11:15:14;;;;;;;5.55;1.17;;;;;;;;;;5046488;28;20174;-63
2023/08/31 11:17:43;;;;;;;5.45;1.23;;;;;;;;;;5047430;28;20047;-62
2023/08/31 11:20:13;;;;;;;5.28;1.20;;;;;;;;;;5047469;28;20031;-62
2023/08/31 11:22:41;;;;;;;6.93;0.90;;;;;;;;;;5046749;28;20492;-62
2023/08/31 11:25:08;;;;;;;3.63;0.93;;;;;;;;;;5046948;28;20032;-62
2023/08/31 11:27:34;;;;;;;4.13;1.05;;;;;;;;;;5047325;28;20028;-62
2023/08/31 11:30:00;;;;;;;4.97;1.00;;;;;;;;;;5045234;28;20020;-63
2023/08/31 11:32:26;;;;;;;2.72;1.00;;;;;;;;;;5046724;28;20028;-63
2023/08/31 11:34:52;;;;;;;3.88;0.82;;;;;;;;;;5046807;28;20085;-63
2023/08/31 11:37:22;;;;;;;3.63;0.70;;;;;;;;;;5047737;28;21346;-62
2023/08/31 11:39:49;;;;;;;4.55;0.82;;;;;;;;;;5046118;28;20038;-62
2023/08/31 11:42:18;;;;;;;6.05;1.42;;;;;;;;;;5048021;28;20039;-63
2023/08/31 11:44:44;;;;;;;3.90;0.90;;;;;;;;;;5047267;28;20948;-62
2023/08/31 11:47:10;;;;;;;4.60;1.15;;;;;;;;;;5047682;28;20062;-62
2023/08/31 11:49:36;;;;;;;3.50;1.00;;;;;;;;;;5046023;28;20032;-63
2023/08/31 11:52:05;;;;;;;4.78;0.93;;;;;;;;;;5046619;28;20117;-62
2023/08/31 11:54:32;;;;;;;5.43;1.10;;;;;;;;;;5047865;28;20037;-62
2023/08/31 11:56:58;;;;;;;2.92;0.82;;;;;;;;;;5045250;28;20064;-63
2023/08/31 11:59:24;;;;;;;3.35;0.73;;;;;;;;;;5046883;28;20524;-62
2023/08/31 12:01:50;;;;;;;4.22;1.10;;;;;;;;;;5046689;28;20171;-62
2023/08/31 12:04:23;;;;;;;2.70;0.85;;;;;;;;;;5046160;28;20032;-62
2023/08/31 12:06:53;;;;;;;4.28;0.98;;;;;;;;;;5047122;28;20034;-63
2023/08/31 12:09:21;;;;;;;2.13;0.63;;;;;;;;;;5044891;28;20155;-63
2023/08/31 12:11:51;;;;;;;2.30;0.63;;;;;;;;;;5044699;28;20101;-63
2023/08/31 12:14:21;;;;;;;2.28;0.60;;;;;;;;;;5044471;28;21098;-63
2023/08/31 12:16:47;;;;;;;2.97;0.70;;;;;;;;;;5045612;28;20082;-63
2023/08/31 12:19:13;;;;;;;4.43;0.70;;;;;;;;;;5046272;28;20035;-63
2023/08/31 12:21:40;;;;;;;3.22;1.02;;;;;;;;;;5046294;28;21879;-63
2023/08/31 12:24:06;;;;;;;2.67;0.75;;;;;;;;;;5046787;28;20032;-63
2023/08/31 12:26:32;;;;;;;4.57;0.80;;;;;;;;;;5047582;28;20110;-63
2023/08/31 12:28:58;;;;;;;5.38;0.90;;;;;;;;;;5047940;28;20032;-63
2023/08/31 12:31:25;;;;;;;5.95;1.30;;;;;;;;;;5048709;28;20070;-63
2023/08/31 12:33:51;;;;;;;2.47;0.93;;;;;;;;;;5047156;28;20581;-63
2023/08/31 12:36:18;;;;;;;2.97;1.35;;;;;;;;;;5047590;28;20151;-63
2023/08/31 12:38:44;;;;;;;3.35;0.90;;;;;;;;;;5042529;28;20028;-63
2023/08/31 12:41:10;;;;;;;4.40;1.50;;;;;;;;;;5044944;28;20039;-62
2023/08/31 12:43:37;;;;;;;4.60;1.20;;;;;;;;;;5046599;28;20057;-63
2023/08/31 12:46:05;;;;;;;3.45;1.17;;;;;;;;;;5046334;28;20040;-63
2023/08/31 12:48:31;;;;;;;5.90;1.25;;;;;;;;;;5044522;28;20038;-63
2023/08/31 12:50:57;;;;;;;3.88;1.52;;;;;;;;;;5046790;28;21100;-63
2023/08/31 12:53:23;;;;;;;5.50;1.65;;;;;;;;;;5041132;28;20036;-63
2023/08/31 12:55:50;;;;;;;4.85;1.30;;;;;;;;;;5047349;28;20043;-63
2023/08/31 12:58:16;;;;;;;2.88;0.80;;;;;;;;;;5046439;28;20036;-63
2023/08/31 13:00:47;;;;;;;6.55;1.00;;;;;;;;;;5047450;28;20025;-63
2023/08/31 13:03:13;;;;;;;4.70;0.95;;;;;;;;;;5044093;28;20031;-63
2023/08/31 13:05:40;;;;;;;4.30;0.90;;;;;;;;;;5044298;28;20566;-63
2023/08/31 13:08:07;;;;;;;5.75;1.13;;;;;;;;;;5043195;28;20028;-62
2023/08/31 13:10:33;;;;;;;4.47;0.90;;;;;;;;;;5046324;28;21142;-63
2023/08/31 13:12:59;;;;;;;4.05;0.93;;;;;;;;;;5045558;28;20126;-63
2023/08/31 13:15:25;;;;;;;5.10;1.25;;;;;;;;;;5043856;28;20659;-63
2023/08/31 13:17:51;;;;;;;5.65;0.82;;;;;;;;;;5045247;28;20224;-63
2023/08/31 13:20:17;;;;;;;4.38;0.93;;;;;;;;;;5044728;28;20082;-62
2023/08/31 13:22:43;;;;;;;4.40;1.00;;;;;;;;;;5044356;28;20056;-63
2023/08/31 13:25:11;;;;;;;5.75;1.33;;;;;;;;;;5043041;28;20028;-62
2023/08/31 13:27:37;;;;;;;4.68;1.10;;;;;;;;;;5045270;28;20032;-63
2023/08/31 13:30:06;;;;;;;5.88;1.20;;;;;;;;;;5044349;28;20029;-62
2023/08/31 13:32:33;;;;;;;4.03;0.90;;;;;;;;;;5046667;28;20028;-62
2023/08/31 13:34:59;;;;;;;4.85;0.98;;;;;;;;;;5045549;28;21202;-63
2023/08/31 13:37:25;;;;;;;4.85;1.02;;;;;;;;;;5031751;28;20175;-62
2023/08/31 13:39:54;;;;;;;4.93;0.95;;;;;;;;;;5043216;28;21264;-63
2023/08/31 13:42:21;;;;;;;2.75;0.80;;;;;;;;;;5045380;28;20147;-63
2023/08/31 13:44:50;;;;;;;6.13;1.63;;;;;;;;;;5045530;28;21706;-63
2023/08/31 13:47:16;;;;;;;6.95;1.73;;;;;;;;;;5045488;28;20040;-62
2023/08/31 13:49:42;;;;;;;5.20;0.90;;;;;;;;;;5045553;28;20071;-67
2023/08/31 13:52:10;;;;;;;4.70;1.10;;;;;;;;;;5045818;28;20044;-67
2023/08/31 13:54:36;;;;;;;4.50;0.82;;;;;;;;;;5045744;28;20043;-67
2023/08/31 13:57:02;;;;;;;3.17;0.80;;;;;;;;;;5042099;28;20113;-67
2023/08/31 13:59:28;;;;;;;5.40;0.90;;;;;;;;;;5045286;28;20020;-67
2023/08/31 14:01:55;;;;;;;3.47;0.63;;;;;;;;;;5046172;28;20107;-67
2023/08/31 14:04:24;;;;;;;2.85;0.60;;;;;;;;;;5044337;28;20055;-67
2023/08/31 14:06:50;;;;;;;3.88;0.80;;;;;;;;;;5046252;28;20035;-67
2023/08/31 14:09:18;;;;;;;3.42;1.05;;;;;;;;;;5051897;28;20121;-67
2023/08/31 14:11:44;;;;;;;4.72;0.98;;;;;;;;;;5053850;28;20055;-67
2023/08/31 14:14:10;;;;;;;4.53;1.00;;;;;;;;;;5053541;28;20047;-67
2023/08/31 14:16:37;;;;;;;2.85;0.80;;;;;;;;;;5054574;28;20044;-67
2023/08/31 14:19:06;;;;;;;5.60;1.27;;;;;;;;;;5054969;28;20105;-67
2023/08/31 14:21:32;;;;;;;12.55;1.63;;;;;;;;;;5057780;28;20063;-67
2023/08/31 14:23:58;;;;;;;6.00;1.23;;;;;;;;;;5058691;28;20043;-67
2023/08/31 14:26:25;;;;;;;5.63;1.35;;;;;;;;;;5058716;28;20047;-67
2023/08/31 14:28:53;;;;;;;4.07;0.90;;;;;;;;;;5058603;28;20069;-67
2023/08/31 14:31:20;;;;;;;7.95;1.42;;;;;;;;;;5058654;28;20035;-67
2023/08/31 14:33:50;;;;;;;4.25;1.08;;;;;;;;;;5058762;28;20024;-67
2023/08/31 14:36:17;;;;;;;5.28;1.00;;;;;;;;;;5059233;28;20041;-67
2023/08/31 14:38:43;;;;;;;4.03;1.15;;;;;;;;;;5058990;28;20043;-67
2023/08/31 14:41:09;;;;;;;4.13;1.10;;;;;;;;;;5058315;28;20028;-67
2023/08/31 14:43:35;;;;;;;4.35;0.93;;;;;;;;;;5057712;28;20181;-67